Alt del Madrigal, Puerto Rico
Current Conditions -  °F | °C
As of 4:50 PM on Sunday 21 Dec 2014 (Local Time) from TJPS Reporting Station
Few Clouds Few Clouds  
Wind Chill: 86°   Ceiling: Unl
Heat Index: 87°   Visibility: 10mi
Dew Point: 64°   Wind: 9mph
Humidity: 48%   Direction: 40°NE
Pressure: 29.94"   Gusts: NA
Location:  18.0152°N, 66.6246°W
Report Text: TJPS 212050Z 04008KT 10SM FEW030 30/18 A2994
Loading
Personal Weather Stations






























Interactive Weather Map New forecast layout! Learn more

10-Day Weather Forecast

Advertisements
Track Severe Weather on mobile